ETEB/QOB METAR and TAF weather

Enter ICAO airport designator
Station Type Date Time Source
ETEB METAR 2020/03/29 11:11 UTC NOAA

ETEB 291111Z AUTO 36009KT 9999 SCT021 BKN029 BKN047 05/02 A3009 RMK AO2 CIG 021V047 SLP216 $


Station Type Date Time Source
ETEB Decoded METAR 2020/03/29 11:11 UTC NOAA

Ansbach / Katterbach, Germany (ETEB) 49-19N 010-38E 476M
Mar 29, 2020 - 07:11 AM EDT / 2020.03.29 1111 UTC
Wind: from the N (360 degrees) at 10 MPH (9 KT):0
Visibility: greater than 7 mile(s):0
Sky conditions: mostly cloudy
Temperature: 41 F (5 C)
Dew Point: 35 F (2 C)
Relative Humidity: 80%
Pressure (altimeter): 30.09 in. Hg (1018 hPa)
ob: ETEB 291111Z AUTO 36009KT 9999 SCT021 BKN029 BKN047 05/02 A3009 RMK AO2 CIG 021V047 SLP216
cycle: 11

Station Type Date Time Source
ETEB TAF 2020/03/27 23:21 UTC NOAA

TAF COR ETEB 272321Z 2723/2820 08009KT 9999 FEW040 QNH2996INS TX13/2812Z TN02/2803Z LAST NO
AMDS AFT 2717 NEXT 2921

Example: see airport list